Time;durP1;ratioP1;P1;durP2;ratioP2;P2;SDS_P1;SDS_P2;PMS_P1;PMS_P2;Temp;Humidity;BMP_temperature;BMP_pressure;BME280_temperature;BME280_humidity;BME280_pressure;Samples;Min_cycle;Max_cycle;Signal;HPM_P1;HPM_P2
2022/05/26 00:02:03;;;;;;;16.60;10.55;;;13.80;1.00;;;;;;5001314;28;20046;-87
2022/05/26 00:04:29;;;;;;;18.80;10.85;;;13.80;1.00;;;;;;4996679;28;20495;-86
2022/05/26 00:06:55;;;;;;;17.58;11.27;;;13.80;1.00;;;;;;4981980;28;20125;-87
2022/05/26 00:09:22;;;;;;;15.05;10.23;;;13.80;1.00;;;;;;4999862;28;20108;-86
2022/05/26 00:11:48;;;;;;;15.48;10.65;;;13.80;1.00;;;;;;5002959;28;20452;-86
2022/05/26 00:14:13;;;;;;;17.75;11.13;;;13.80;1.00;;;;;;4984765;28;20042;-87
2022/05/26 00:16:42;;;;;;;19.20;10.63;;;13.90;1.00;;;;;;5001826;28;20074;-86
2022/05/26 00:19:08;;;;;;;17.98;10.48;;;13.80;1.00;;;;;;4983848;28;20046;-86
2022/05/26 00:21:34;;;;;;;15.65;9.23;;;13.80;1.00;;;;;;4976118;28;20046;-86
2022/05/26 00:24:00;;;;;;;19.33;9.75;;;13.90;1.00;;;;;;4991017;28;20044;-86
2022/05/26 00:26:26;;;;;;;27.23;9.25;;;13.80;1.00;;;;;;5004087;28;20042;-85
2022/05/26 00:28:52;;;;;;;19.98;9.10;;;13.80;1.00;;;;;;5016195;28;20038;-86
2022/05/26 00:31:18;;;;;;;20.60;9.65;;;13.80;1.00;;;;;;5001256;28;20533;-86
2022/05/26 00:33:47;;;;;;;28.38;9.75;;;13.90;1.00;;;;;;4987905;28;20045;-85
2022/05/26 00:36:15;;;;;;;21.08;9.50;;;13.90;1.00;;;;;;5013458;28;20043;-86
2022/05/26 00:38:41;;;;;;;26.15;9.48;;;13.90;1.00;;;;;;4984025;28;20042;-86
2022/05/26 00:41:10;;;;;;;28.75;10.35;;;13.80;1.00;;;;;;4985303;28;20092;-86
2022/05/26 00:43:45;;;;;;;28.05;10.05;;;13.80;27.70;;;;;;4998700;28;20060;-85
2022/05/26 00:46:28;;;;;;;23.75;10.25;;;13.90;1.00;;;;;;4999287;28;20108;-86
2022/05/26 00:48:58;;;;;;;31.73;10.27;;;14.00;1.00;;;;;;5014781;28;20116;-86
2022/05/26 00:51:29;;;;;;;31.23;10.80;;;13.90;1.00;;;;;;4986783;28;20349;-86
2022/05/26 00:53:58;;;;;;;32.53;10.35;;;13.80;1.00;;;;;;5013521;28;20034;-86
2022/05/26 00:56:38;;;;;;;28.73;10.45;;;13.90;4.20;;;;;;4981894;28;20432;-86
2022/05/26 00:59:32;;;;;;;33.13;10.50;;;13.90;16.60;;;;;;5000474;28;20031;-86
2022/05/26 01:01:58;;;;;;;33.33;10.80;;;13.90;54.00;;;;;;4986502;28;20651;-85
2022/05/26 01:04:27;;;;;;;35.30;10.88;;;13.90;36.90;;;;;;4984067;28;20044;-86
2022/05/26 01:07:03;;;;;;;34.78;11.18;;;13.90;78.10;;;;;;4998507;28;20126;-86
2022/05/26 01:09:28;;;;;;;34.75;10.68;;;13.90;84.50;;;;;;5012890;28;20054;-86
2022/05/26 01:11:54;;;;;;;37.10;11.13;;;14.00;63.30;;;;;;5014852;28;20567;-85
2022/05/26 01:14:29;;;;;;;35.40;11.38;;;14.00;53.20;;;;;;5009163;28;20037;-86
2022/05/26 01:17:13;;;;;;;;;;;14.00;27.20;;;;;;5010977;28;20298;-87
2022/05/26 01:20:12;;;;;;;34.78;11.13;;;14.00;56.90;;;;;;5001345;28;19932;-86
2022/05/26 01:22:43;;;;;;;27.05;9.98;;;14.00;34.50;;;;;;4997517;28;20037;-85
2022/05/26 01:25:37;;;;;;;33.15;11.38;;;14.00;31.90;;;;;;5011532;28;20042;-85
2022/05/26 01:28:27;;;;;;;35.80;11.20;;;14.10;9.80;;;;;;4993828;28;20038;-85
2022/05/26 01:31:15;;;;;;;33.55;11.35;;;14.00;1.00;;;;;;5011781;28;20424;-86
2022/05/26 01:34:10;;;;;;;36.83;11.27;;;14.00;6.60;;;;;;4988220;28;20049;-86
2022/05/26 01:36:46;;;;;;;33.42;10.88;;;14.00;24.90;;;;;;4988906;28;20381;-86
2022/05/26 01:39:51;;;;;;;32.60;11.07;;;13.90;1.00;;;;;;5013622;28;20045;-85
2022/05/26 01:42:37;;;;;;;38.95;11.35;;;13.90;1.00;;;;;;4995980;28;20100;-86
2022/05/26 01:45:10;;;;;;;29.75;10.80;;;13.90;1.00;;;;;;4984589;28;20109;-86
2022/05/26 01:48:03;;;;;;;31.67;10.85;;;13.90;22.10;;;;;;4987082;28;20034;-85
2022/05/26 01:50:52;;;;;;;29.13;10.35;;;13.80;44.90;;;;;;4998347;28;20062;-85
2022/05/26 01:53:55;;;;;;;36.63;12.18;;;13.70;1.00;;;;;;4981952;28;20034;-85
2022/05/26 01:56:38;;;;;;;36.17;11.65;;;13.80;37.90;;;;;;4978813;28;20040;-86
2022/05/26 01:59:16;;;;;;;33.78;12.00;;;13.80;54.90;;;;;;4986544;28;20109;-86
2022/05/26 02:01:51;;;;;;;32.30;11.90;;;13.80;21.50;;;;;;4997328;28;20406;-85
2022/05/26 02:04:25;;;;;;;36.42;10.80;;;13.80;24.30;;;;;;4995895;28;20342;-85
2022/05/26 02:06:56;;;;;;;42.67;12.18;;;13.90;28.20;;;;;;5014175;28;20047;-86
2022/05/26 02:09:38;;;;;;;31.80;10.52;;;13.80;1.00;;;;;;4978638;28;20394;-85
2022/05/26 02:12:08;;;;;;;32.08;10.60;;;13.80;1.00;;;;;;5012355;28;20061;-86
2022/05/26 02:14:47;;;;;;;32.20;10.45;;;13.90;1.00;;;;;;4999463;28;20114;-85
2022/05/26 02:17:18;;;;;;;40.42;10.85;;;13.80;1.00;;;;;;4984238;28;20136;-85
2022/05/26 02:19:53;;;;;;;33.00;10.32;;;13.80;1.00;;;;;;4996225;28;20042;-85
2022/05/26 02:22:19;;;;;;;30.27;8.98;;;13.80;1.00;;;;;;5008706;28;20047;-85
2022/05/26 02:24:58;;;;;;;30.30;9.50;;;13.80;1.00;;;;;;4985013;28;20045;-85
2022/05/26 02:27:26;;;;;;;26.20;10.27;;;13.80;1.00;;;;;;4998020;28;20477;-85
2022/05/26 02:29:52;;;;;;;38.28;9.63;;;13.80;1.00;;;;;;4998589;28;20053;-86
2022/05/26 02:32:30;;;;;;;32.83;9.48;;;13.80;1.00;;;;;;4982909;28;20088;-86
2022/05/26 02:34:58;;;;;;;33.60;9.27;;;13.80;99.90;;;;;;5010782;28;20637;-85
2022/05/26 02:37:26;;;;;;;27.92;8.52;;;13.80;99.90;;;;;;4986335;28;20041;-86
2022/05/26 02:39:52;;;;;;;30.38;8.93;;;13.80;99.90;;;;;;4965986;28;20123;-86
2022/05/26 02:42:19;;;;;;;29.48;7.97;;;13.80;99.90;;;;;;5011347;28;20052;-86
2022/05/26 02:44:46;;;;;;;30.20;8.20;;;13.80;99.90;;;;;;5008552;28;20049;-85
2022/05/26 02:47:19;;;;;;;28.98;7.97;;;13.80;99.90;;;;;;4983805;28;20482;-85
2022/05/26 02:50:07;;;;;;;24.15;7.15;;;13.70;99.90;;;;;;4982461;28;20385;-85
2022/05/26 02:52:49;;;;;;;31.17;7.75;;;13.70;99.90;;;;;;4980745;28;20073;-86
2022/05/26 02:55:23;;;;;;;30.85;7.47;;;13.70;99.90;;;;;;4983595;28;20053;-85
2022/05/26 02:58:21;;;;;;;37.92;8.45;;;13.60;99.90;;;;;;4981266;28;20046;-86
2022/05/26 03:01:19;;;;;;;32.45;8.20;;;13.50;99.90;;;;;;4984407;28;20049;-85
2022/05/26 03:04:08;;;;;;;28.90;8.38;;;13.50;99.90;;;;;;4996360;28;20384;-85
2022/05/26 03:06:45;;;;;;;22.10;7.85;;;13.40;1.00;;;;;;4986889;28;20039;-85
2022/05/26 03:09:11;;;;;;;26.63;7.72;;;13.40;99.90;;;;;;5011861;28;20048;-86
2022/05/26 03:11:49;;;;;;;25.90;7.20;;;13.50;99.90;;;;;;4983221;28;20477;-86
2022/05/26 03:14:17;;;;;;;33.05;8.30;;;13.40;99.90;;;;;;5012669;28;20088;-85
2022/05/26 03:16:43;;;;;;;31.88;8.45;;;13.40;99.90;;;;;;4987361;28;20045;-86
2022/05/26 03:19:10;;;;;;;26.83;7.60;;;13.40;99.90;;;;;;4984169;28;20594;-85
2022/05/26 03:21:36;;;;;;;30.58;7.32;;;13.40;99.90;;;;;;5011223;28;20118;-85
2022/05/26 03:24:01;;;;;;;32.78;7.25;;;13.50;1.00;;;;;;4985975;28;20442;-86
2022/05/26 03:26:27;;;;;;;34.58;8.00;;;13.40;99.90;;;;;;5004104;28;20088;-86
2022/05/26 03:28:53;;;;;;;30.80;7.47;;;13.40;99.90;;;;;;4983143;28;20133;-85
2022/05/26 03:31:18;;;;;;;27.25;7.00;;;13.50;99.90;;;;;;4986002;28;20129;-85
2022/05/26 03:42:04;;;;;;;21.75;6.18;;;13.20;99.90;;;;;;4982509;28;20050;-85
2022/05/26 03:44:32;;;;;;;18.25;5.68;;;13.30;99.90;;;;;;4984271;28;20463;-86
2022/05/26 03:46:58;;;;;;;19.98;5.97;;;13.30;99.90;;;;;;5007712;28;20606;-86
2022/05/26 03:49:24;;;;;;;19.42;5.43;;;13.30;99.90;;;;;;5003187;28;20042;-85
2022/05/26 03:51:50;;;;;;;20.90;5.60;;;13.20;99.90;;;;;;4985065;28;20044;-85
2022/05/26 03:54:19;;;;;;;15.52;4.75;;;13.20;99.90;;;;;;4980680;28;20038;-85
2022/05/26 03:56:44;;;;;;;15.50;4.60;;;13.20;99.90;;;;;;5000803;28;20034;-86
2022/05/26 03:59:10;;;;;;;17.02;4.07;;;13.30;26.90;;;;;;4986484;28;20544;-86
2022/05/26 04:01:36;;;;;;;14.02;4.07;;;13.30;1.00;;;;;;4997645;28;20069;-86
2022/05/26 04:04:02;;;;;;;17.48;3.90;;;13.30;1.00;;;;;;4979805;28;20528;-85
2022/05/26 04:06:28;;;;;;;10.75;3.60;;;13.30;1.00;;;;;;4994785;28;20035;-85
2022/05/26 04:08:54;;;;;;;13.85;3.75;;;13.40;1.00;;;;;;4983027;28;20038;-86
2022/05/26 04:11:23;;;;;;;13.07;3.63;;;13.40;99.90;;;;;;4984394;28;20128;-86
2022/05/26 04:13:51;;;;;;;12.20;3.50;;;13.30;1.00;;;;;;5001909;28;21116;-86
2022/05/26 04:16:17;;;;;;;12.85;3.70;;;13.40;1.00;;;;;;5006241;28;20088;-86
2022/05/26 04:18:43;;;;;;;14.75;3.70;;;13.30;1.00;;;;;;4980813;28;20438;-86
2022/05/26 04:21:10;;;;;;;11.30;3.13;;;13.30;1.00;;;;;;4995340;28;20124;-85
2022/05/26 04:23:40;;;;;;;10.45;3.80;;;13.30;1.00;;;;;;4995846;28;20074;-86
2022/05/26 04:26:07;;;;;;;14.50;3.78;;;13.20;1.00;;;;;;4999697;28;20031;-85
2022/05/26 04:28:33;;;;;;;11.10;3.53;;;13.30;99.90;;;;;;4985189;28;20042;-86
2022/05/26 04:30:59;;;;;;;11.25;3.17;;;13.30;99.90;;;;;;4997656;28;20049;-85
2022/05/26 04:33:25;;;;;;;10.63;3.13;;;13.40;99.90;;;;;;5008540;28;20026;-85
2022/05/26 04:35:51;;;;;;;11.93;2.95;;;13.40;99.90;;;;;;4979255;28;20549;-85
2022/05/26 04:38:18;;;;;;;13.57;3.25;;;13.40;99.90;;;;;;4983590;28;20407;-85
2022/05/26 04:40:45;;;;;;;10.98;3.33;;;13.40;99.90;;;;;;5009244;28;20069;-85
2022/05/26 04:43:11;;;;;;;9.45;2.88;;;13.30;99.90;;;;;;5001721;28;20058;-86
2022/05/26 04:45:37;;;;;;;11.32;2.80;;;13.40;99.90;;;;;;4982638;28;20038;-85
2022/05/26 04:48:03;;;;;;;8.18;2.55;;;13.50;99.90;;;;;;4997166;28;20050;-86
2022/05/26 04:50:29;;;;;;;8.00;2.47;;;13.50;99.90;;;;;;5009406;28;20046;-85
2022/05/26 04:52:55;;;;;;;10.77;2.90;;;13.70;99.90;;;;;;4984199;28;20831;-85
2022/05/26 04:55:20;;;;;;;7.05;2.53;;;13.90;99.90;;;;;;5003942;28;20033;-85
2022/05/26 04:57:47;;;;;;;9.13;2.45;;;13.80;99.90;;;;;;4979652;28;20038;-85
2022/05/26 05:00:16;;;;;;;6.30;2.25;;;13.80;99.90;;;;;;4995104;28;20606;-85
2022/05/26 05:02:42;;;;;;;6.90;2.00;;;13.70;99.90;;;;;;5014227;28;20042;-85
2022/05/26 05:05:10;;;;;;;9.82;2.17;;;13.70;99.90;;;;;;4998252;28;20125;-85
2022/05/26 05:07:36;;;;;;;7.97;2.47;;;13.70;99.90;;;;;;4985633;28;20401;-86
2022/05/26 05:10:03;;;;;;;9.57;2.22;;;13.80;99.90;;;;;;5002339;28;20046;-86
2022/05/26 05:12:29;;;;;;;6.90;1.83;;;13.80;99.90;;;;;;4986611;28;20039;-85
2022/05/26 05:14:56;;;;;;;6.70;1.83;;;13.70;99.90;;;;;;5002817;28;20041;-85
2022/05/26 05:17:23;;;;;;;7.18;1.95;;;13.80;99.90;;;;;;4987335;28;20049;-84
2022/05/26 05:19:49;;;;;;;12.43;2.35;;;13.70;99.90;;;;;;4987151;28;20047;-85
2022/05/26 05:22:34;;;;;;;8.45;1.67;;;13.70;99.90;;;;;;4997884;28;20042;-85
2022/05/26 05:25:05;;;;;;;12.63;2.77;;;13.90;99.90;;;;;;5014514;28;20045;-84
2022/05/26 05:27:36;;;;;;;10.68;2.42;;;14.20;99.90;;;;;;5002561;28;20331;-85
2022/05/26 05:30:10;;;;;;;7.72;1.83;;;14.20;99.90;;;;;;4984905;28;20044;-85
2022/05/26 05:32:45;;;;;;;4.75;1.50;;;14.30;99.90;;;;;;4987215;28;20480;-85
2022/05/26 05:35:20;;;;;;;9.20;2.00;;;14.20;99.90;;;;;;4984279;28;20042;-85
2022/05/26 05:37:46;;;;;;;5.75;1.95;;;14.10;99.90;;;;;;5012577;28;20094;-85
2022/05/26 05:40:12;;;;;;;8.52;2.35;;;14.10;99.90;;;;;;4997384;28;20066;-85
2022/05/26 05:42:39;;;;;;;10.20;2.00;;;14.40;99.90;;;;;;4989898;28;20142;-86
2022/05/26 05:45:06;;;;;;;7.80;2.08;;;14.40;99.90;;;;;;4997915;28;20025;-85
2022/05/26 05:47:31;;;;;;;6.75;2.03;;;14.40;99.90;;;;;;5001522;28;20069;-85
2022/05/26 05:49:57;;;;;;;8.48;1.88;;;14.50;99.90;;;;;;4987991;28;20071;-85
2022/05/26 05:52:23;;;;;;;7.93;2.22;;;14.50;56.90;;;;;;4985972;28;20148;-85
2022/05/26 05:54:50;;;;;;;10.52;1.98;;;14.70;99.90;;;;;;4985285;28;20505;-85
2022/05/26 05:57:16;;;;;;;13.00;2.10;;;14.70;82.40;;;;;;5010341;28;20036;-85
2022/05/26 05:59:41;;;;;;;7.40;1.90;;;14.60;55.80;;;;;;4984094;28;20060;-85
2022/05/26 06:02:08;;;;;;;5.47;1.77;;;14.60;63.30;;;;;;4988474;28;20038;-85
2022/05/26 06:04:41;;;;;;;7.03;1.77;;;14.80;94.10;;;;;;5012201;28;20045;-86
2022/05/26 06:07:21;;;;;;;7.65;1.60;;;14.70;36.20;;;;;;5010620;28;20072;-85
2022/05/26 06:09:48;;;;;;;9.40;2.15;;;14.80;87.80;;;;;;4998013;28;20089;-85
2022/05/26 06:12:14;;;;;;;9.00;2.28;;;14.80;61.60;;;;;;5012589;28;20041;-85
2022/05/26 06:14:42;;;;;;;6.63;1.77;;;14.90;83.50;;;;;;5011239;28;20030;-85
2022/05/26 06:17:08;;;;;;;7.00;1.60;;;14.90;18.90;;;;;;5005114;28;20271;-86
2022/05/26 06:19:34;;;;;;;8.23;1.88;;;15.00;43.50;;;;;;4982570;28;20109;-85
2022/05/26 06:22:12;;;;;;;7.82;2.00;;;15.10;76.20;;;;;;5001561;28;20449;-86
2022/05/26 06:24:39;;;;;;;7.40;1.60;;;15.20;99.90;;;;;;5000384;28;20045;-85
2022/05/26 06:29:56;;;;;;;8.00;1.55;;;15.30;1.00;;;;;;4980831;28;20500;-85
2022/05/26 06:37:53;;;;;;;8.05;1.70;;;15.40;70.90;;;;;;5010128;28;20042;-85
2022/05/26 06:40:19;;;;;;;4.97;1.70;;;15.50;1.00;;;;;;5003398;28;20056;-85
2022/05/26 06:42:46;;;;;;;5.53;1.50;;;15.60;1.00;;;;;;5000991;28;20046;-86
2022/05/26 06:45:18;;;;;;;7.38;1.73;;;15.90;1.00;;;;;;5001955;28;20485;-85
2022/05/26 06:47:44;;;;;;;7.68;1.60;;;16.00;1.00;;;;;;4987215;28;20037;-85
2022/05/26 06:50:10;;;;;;;5.43;1.45;;;16.20;1.00;;;;;;4986526;28;20503;-86
2022/05/26 06:52:37;;;;;;;4.78;1.55;;;16.00;99.90;;;;;;4988390;28;20108;-86
2022/05/26 06:55:07;;;;;;;3.70;1.25;;;16.10;99.90;;;;;;4979011;28;20091;-85
2022/05/26 06:57:33;;;;;;;6.25;1.55;;;16.00;99.90;;;;;;4999358;28;20108;-84
2022/05/26 07:00:00;;;;;;;3.95;1.30;;;16.10;99.90;;;;;;4982160;28;20667;-85
2022/05/26 07:02:26;;;;;;;8.20;1.30;;;16.10;99.90;;;;;;5001663;28;20033;-85
2022/05/26 07:04:52;;;;;;;6.18;1.55;;;15.90;99.90;;;;;;4982545;28;20255;-85
2022/05/26 07:07:18;;;;;;;6.03;1.67;;;15.80;99.90;;;;;;5000079;28;20285;-85
2022/05/26 07:09:46;;;;;;;4.50;1.20;;;15.80;1.00;;;;;;4980533;28;20140;-85
2022/05/26 07:12:12;;;;;;;4.47;1.45;;;15.70;99.90;;;;;;4983591;28;20670;-85
2022/05/26 07:14:38;;;;;;;6.43;1.52;;;15.60;99.90;;;;;;4980653;28;20446;-85
2022/05/26 07:17:04;;;;;;;8.20;1.50;;;15.60;1.00;;;;;;4986165;28;20110;-84
2022/05/26 07:19:37;;;;;;;4.57;1.45;;;15.60;1.00;;;;;;4998018;28;20034;-85
2022/05/26 07:22:03;;;;;;;5.22;1.35;;;15.60;1.00;;;;;;4982724;28;20038;-85
2022/05/26 07:24:29;;;;;;;5.93;1.50;;;15.90;1.00;;;;;;5002587;28;20042;-84
2022/05/26 07:26:55;;;;;;;6.85;1.40;;;16.20;99.90;;;;;;5002389;28;20664;-85
2022/05/26 07:29:21;;;;;;;8.55;1.50;;;16.40;1.00;;;;;;4995238;28;20402;-85
2022/05/26 07:31:47;;;;;;;5.00;1.60;;;16.20;99.90;;;;;;5009689;28;20043;-85
2022/05/26 07:34:12;;;;;;;6.03;1.40;;;16.20;99.90;;;;;;4998523;28;20481;-85
2022/05/26 07:42:11;;;;;;;6.00;1.50;;;16.30;99.90;;;;;;5002786;28;20042;-86
2022/05/26 07:44:42;;;;;;;4.68;1.30;;;16.40;99.90;;;;;;4993797;28;20062;-85
2022/05/26 07:47:09;;;;;;;3.35;1.30;;;16.50;99.90;;;;;;5010201;28;20050;-85
2022/05/26 07:49:35;;;;;;;7.50;1.42;;;16.40;99.90;;;;;;4996943;28;20128;-85
2022/05/26 07:52:01;;;;;;;5.28;1.30;;;16.40;99.90;;;;;;4981217;28;20149;-84
2022/05/26 07:54:28;;;;;;;8.73;1.33;;;16.80;99.90;;;;;;4988374;28;20449;-85
2022/05/26 07:56:55;;;;;;;4.25;1.30;;;16.50;99.90;;;;;;5000237;28;20109;-85
2022/05/26 07:59:21;;;;;;;4.10;1.25;;;16.50;99.90;;;;;;4980688;28;20039;-85
2022/05/26 08:01:48;;;;;;;5.65;1.55;;;16.80;99.90;;;;;;4981662;28;20034;-85
2022/05/26 08:04:14;;;;;;;7.03;1.60;;;16.60;99.90;;;;;;5010297;28;20112;-85
2022/05/26 08:06:40;;;;;;;7.32;1.52;;;16.80;99.90;;;;;;4983752;28;20045;-85
2022/05/26 08:09:06;;;;;;;4.13;1.40;;;16.70;99.90;;;;;;4994351;28;20043;-86
2022/05/26 08:11:31;;;;;;;6.68;1.60;;;16.70;99.90;;;;;;4981767;28;20104;-85
2022/05/26 08:13:57;;;;;;;6.75;1.35;;;16.80;99.90;;;;;;4985595;28;20031;-85
2022/05/26 08:16:23;;;;;;;6.43;1.17;;;16.70;99.90;;;;;;4996222;28;20073;-86
2022/05/26 08:18:51;;;;;;;6.43;1.70;;;16.80;99.90;;;;;;5007506;28;20030;-85
2022/05/26 08:21:18;;;;;;;3.90;0.90;;;16.70;99.90;;;;;;4996132;28;20241;-85
2022/05/26 08:23:44;;;;;;;5.90;1.40;;;16.80;99.90;;;;;;4986804;28;20464;-85
2022/05/26 08:26:11;;;;;;;5.00;1.30;;;16.80;99.90;;;;;;4984220;28;20041;-85
2022/05/26 08:28:38;;;;;;;3.80;1.50;;;16.90;99.90;;;;;;4984075;28;20038;-85
2022/05/26 08:31:05;;;;;;;6.28;1.30;;;16.90;99.90;;;;;;4995527;28;20046;-84
2022/05/26 08:33:31;;;;;;;2.90;1.20;;;17.20;99.90;;;;;;4995600;28;20048;-85
2022/05/26 08:36:13;;;;;;;7.60;1.48;;;16.90;99.90;;;;;;4984776;28;20046;-85
2022/05/26 08:38:40;;;;;;;5.10;1.23;;;17.20;99.90;;;;;;4987559;28;20372;-86
2022/05/26 08:41:07;;;;;;;5.72;1.20;;;17.10;99.90;;;;;;4997031;28;20526;-85
2022/05/26 08:43:40;;;;;;;5.25;1.52;;;17.20;99.90;;;;;;4986887;28;20437;-85
2022/05/26 08:46:09;;;;;;;3.72;1.00;;;17.40;99.90;;;;;;5004379;28;20459;-85
2022/05/26 08:48:49;;;;;;;3.65;1.00;;;17.60;99.90;;;;;;5001887;28;20086;-86
2022/05/26 08:51:31;;;;;;;5.60;1.20;;;17.30;99.90;;;;;;5011836;28;20077;-85
2022/05/26 08:53:59;;;;;;;4.63;1.25;;;17.00;99.90;;;;;;5001381;28;20488;-85
2022/05/26 08:56:28;;;;;;;3.75;1.50;;;17.30;99.90;;;;;;5001269;28;20148;-85
2022/05/26 08:59:01;;;;;;;5.38;1.20;;;17.10;99.90;;;;;;5012796;28;20069;-85
2022/05/26 09:01:31;;;;;;;7.50;1.30;;;16.80;99.90;;;;;;4984613;28;20093;-84
2022/05/26 09:03:58;;;;;;;5.70;1.10;;;17.00;99.90;;;;;;5011703;28;21143;-85
2022/05/26 09:06:25;;;;;;;3.25;1.08;;;17.20;99.90;;;;;;4995547;28;20445;-84
2022/05/26 09:14:41;;;;;;;4.32;1.33;;;17.00;99.90;;;;;;4988071;28;20054;-84
2022/05/26 09:17:10;;;;;;;4.82;1.17;;;17.30;99.90;;;;;;4986389;28;20033;-85
2022/05/26 09:19:45;;;;;;;5.05;1.27;;;17.30;99.90;;;;;;4986471;28;20770;-85
2022/05/26 09:22:44;;;;;;;4.55;1.23;;;17.40;99.90;;;;;;4989850;28;20060;-84
2022/05/26 09:25:45;;;;;;;3.35;1.00;;;17.60;99.90;;;;;;5010463;28;20363;-85
2022/05/26 09:28:12;;;;;;;3.05;1.20;;;17.50;99.90;;;;;;4986004;28;20121;-84
2022/05/26 09:30:39;;;;;;;4.20;1.27;;;17.60;99.90;;;;;;5000331;28;20046;-85
2022/05/26 09:33:19;;;;;;;4.88;1.10;;;17.70;99.90;;;;;;4983923;28;20033;-84
2022/05/26 09:35:46;;;;;;;6.28;0.85;;;17.30;99.90;;;;;;4994724;28;20054;-85
2022/05/26 09:38:19;;;;;;;3.90;0.95;;;16.80;99.90;;;;;;4983778;28;20096;-85
2022/05/26 09:40:48;;;;;;;3.55;1.10;;;16.90;99.90;;;;;;4994932;28;20683;-84
2022/05/26 09:43:25;;;;;;;7.53;1.00;;;17.30;99.90;;;;;;4981721;28;20450;-86
2022/05/26 09:45:57;;;;;;;3.47;0.93;;;17.10;99.90;;;;;;4982144;28;20041;-85
2022/05/26 09:48:30;;;;;;;4.05;0.80;;;17.20;99.90;;;;;;4998853;28;20026;-84
2022/05/26 09:51:14;;;;;;;3.65;1.00;;;17.50;99.90;;;;;;5002739;28;20088;-85
2022/05/26 09:53:43;;;;;;;3.93;1.20;;;17.90;99.90;;;;;;4983614;28;20038;-85
2022/05/26 09:56:30;;;;;;;3.63;1.05;;;18.10;99.90;;;;;;5010145;28;20281;-85
2022/05/26 09:58:56;;;;;;;4.80;1.20;;;18.00;99.90;;;;;;4989401;28;20027;-85
2022/05/26 10:01:28;;;;;;;2.95;1.20;;;17.60;99.90;;;;;;4988519;28;20072;-84
2022/05/26 10:04:10;;;;;;;4.70;1.17;;;17.50;99.90;;;;;;4980296;28;20043;-85
2022/05/26 10:06:57;;;;;;;4.50;1.10;;;17.60;99.90;;;;;;4999930;28;20041;-83
2022/05/26 10:09:33;;;;;;;4.18;1.05;;;17.80;99.90;;;;;;4996329;28;20076;-85
2022/05/26 10:12:04;;;;;;;2.85;1.00;;;17.70;99.90;;;;;;4982630;28;20065;-85
2022/05/26 10:15:05;;;;;;;2.75;0.85;;;17.60;99.90;;;;;;5008458;28;20038;-85
2022/05/26 10:17:49;;;;;;;2.95;1.10;;;17.50;99.90;;;;;;4985331;28;20060;-84
2022/05/26 10:20:23;;;;;;;4.13;1.00;;;17.50;99.90;;;;;;4971654;28;20088;-84
2022/05/26 10:23:14;;;;;;;2.67;0.88;;;17.60;99.90;;;;;;4985231;28;20093;-84
2022/05/26 10:25:43;;;;;;;4.50;0.98;;;17.60;99.90;;;;;;5013119;28;20056;-85
2022/05/26 10:28:33;;;;;;;4.82;1.05;;;17.70;99.90;;;;;;4978220;28;20042;-84
2022/05/26 10:31:26;;;;;;;5.18;1.58;;;17.80;99.90;;;;;;5001733;28;20082;-86
2022/05/26 10:33:52;;;;;;;3.65;1.10;;;18.00;99.90;;;;;;5010377;28;20497;-85
2022/05/26 10:36:40;;;;;;;5.78;1.55;;;17.90;99.90;;;;;;4984487;28;20046;-84
2022/05/26 10:39:13;;;;;;;3.05;1.00;;;18.10;99.90;;;;;;5007583;28;20050;-85
2022/05/26 10:41:57;;;;;;;3.85;1.50;;;18.40;99.90;;;;;;4996336;28;20323;-84
2022/05/26 10:44:42;;;;;;;3.47;1.20;;;18.90;99.90;;;;;;5012665;28;20046;-85
2022/05/26 10:47:21;;;;;;;3.30;1.20;;;19.40;99.90;;;;;;4993768;28;20093;-84
2022/05/26 10:50:02;;;;;;;7.28;1.70;;;19.70;99.90;;;;;;4981826;28;20046;-85
2022/05/26 10:52:40;;;;;;;7.18;1.60;;;19.30;99.90;;;;;;4982591;28;20034;-84
2022/05/26 10:55:17;;;;;;;5.90;1.33;;;19.00;99.90;;;;;;5012824;28;20219;-84
2022/05/26 10:57:53;;;;;;;3.80;1.40;;;19.40;99.90;;;;;;4984444;28;20331;-85
2022/05/26 11:00:24;;;;;;;4.70;1.60;;;19.70;99.90;;;;;;4991028;28;20034;-85
2022/05/26 11:03:09;;;;;;;5.22;1.42;;;19.70;99.90;;;;;;4982334;28;20050;-85
2022/05/26 11:06:01;;;;;;;;;;;19.20;99.90;;;;;;5012928;28;20042;-85
2022/05/26 11:08:46;;;;;;;5.63;1.75;;;18.80;99.90;;;;;;4974276;28;19976;-85
2022/05/26 11:11:24;;;;;;;3.00;1.35;;;18.80;99.90;;;;;;4999872;28;20373;-84
2022/05/26 11:13:55;;;;;;;4.93;1.30;;;19.60;99.90;;;;;;4993443;28;20105;-85
2022/05/26 11:19:51;;;;;;;7.20;1.52;;;19.70;99.90;;;;;;4982344;28;20070;-82
2022/05/26 11:22:17;;;;;;;4.95;1.27;;;19.90;99.90;;;;;;4994917;28;20084;-84
2022/05/26 11:24:51;;;;;;;5.65;1.58;;;19.20;99.90;;;;;;4978655;28;20539;-85
2022/05/26 11:27:23;;;;;;;4.85;1.30;;;19.20;99.90;;;;;;5010141;28;20034;-85
2022/05/26 11:30:03;;;;;;;5.18;1.27;;;19.50;99.90;;;;;;4996934;28;20110;-85
2022/05/26 11:38:40;;;;;;;3.45;1.25;;;19.10;99.90;;;;;;5006038;28;20233;-85
2022/05/26 11:41:24;;;;;;;2.47;1.20;;;19.20;99.90;;;;;;5008991;28;20512;-85
2022/05/26 11:44:10;;;;;;;5.55;1.40;;;19.70;99.90;;;;;;5008035;28;20124;-85
2022/05/26 11:46:43;;;;;;;6.03;1.67;;;19.70;99.90;;;;;;4998681;28;20041;-84
2022/05/26 11:49:11;;;;;;;4.68;1.48;;;19.30;99.90;;;;;;4994412;28;20046;-84
2022/05/26 11:51:41;;;;;;;4.60;1.50;;;19.40;99.90;;;;;;4995290;28;20034;-84
2022/05/26 11:54:09;;;;;;;7.45;2.05;;;19.50;99.90;;;;;;5008761;28;20070;-84
2022/05/26 11:56:42;;;;;;;5.78;1.52;;;20.10;99.90;;;;;;4993275;28;20038;-84
2022/05/26 11:59:44;;;;;;;3.55;1.70;;;19.60;99.90;;;;;;5007508;28;20220;-84
2022/05/26 12:02:27;;;;;;;6.97;1.52;;;19.40;99.90;;;;;;4958444;28;20041;-84
2022/05/26 12:04:56;;;;;;;4.80;1.65;;;19.70;99.90;;;;;;4978100;28;20088;-84
2022/05/26 12:07:21;;;;;;;5.82;1.35;;;20.10;99.90;;;;;;4971973;28;20034;-84
2022/05/26 12:09:50;;;;;;;3.53;1.35;;;20.30;99.90;;;;;;5001735;28;20068;-84
2022/05/26 12:12:16;;;;;;;5.20;1.48;;;19.40;99.90;;;;;;5005965;28;20046;-84
2022/05/26 12:14:50;;;;;;;7.43;1.35;;;19.20;99.90;;;;;;4985392;28;20036;-85
2022/05/26 12:17:27;;;;;;;4.47;1.65;;;18.80;99.90;;;;;;5010125;28;20042;-84
2022/05/26 12:19:53;;;;;;;3.92;1.65;;;18.60;99.90;;;;;;5003234;28;20043;-85
2022/05/26 12:22:39;;;;;;;8.93;1.65;;;18.50;99.90;;;;;;4982069;28;20081;-84
2022/05/26 12:25:08;;;;;;;4.85;1.65;;;18.60;99.90;;;;;;5011257;28;20405;-84
2022/05/26 12:27:49;;;;;;;5.85;1.60;;;18.60;99.90;;;;;;4987793;28;20042;-84
2022/05/26 12:30:45;;;;;;;4.93;1.30;;;18.40;99.90;;;;;;4991932;28;20073;-85
2022/05/26 12:33:19;;;;;;;5.35;1.40;;;18.20;99.90;;;;;;4983002;28;20057;-85
2022/05/26 12:36:06;;;;;;;4.68;1.60;;;18.20;99.90;;;;;;4998888;28;20104;-84
2022/05/26 12:38:40;;;;;;;6.25;1.40;;;18.30;99.90;;;;;;4976088;28;20034;-85
2022/05/26 12:41:21;;;;;;;5.57;1.38;;;18.20;99.90;;;;;;5013905;28;20089;-84
2022/05/26 12:44:26;;;;;;;5.03;1.25;;;18.00;99.90;;;;;;5011665;28;20469;-84
2022/05/26 12:47:07;;;;;;;6.38;1.40;;;17.90;99.90;;;;;;4966274;28;20098;-85
2022/05/26 12:50:09;;;;;;;6.10;1.65;;;18.20;99.90;;;;;;4997130;28;20167;-84
2022/05/26 12:52:57;;;;;;;2.88;1.48;;;18.80;99.90;;;;;;4987389;28;20034;-84
2022/05/26 12:55:38;;;;;;;6.38;2.05;;;19.20;99.90;;;;;;4984901;28;20092;-84
2022/05/26 12:58:22;;;;;;;5.45;1.90;;;18.90;99.90;;;;;;4989996;28;20122;-85
2022/05/26 13:00:54;;;;;;;4.83;1.57;;;18.60;99.90;;;;;;5010480;28;20100;-84
2022/05/26 13:03:48;;;;;;;6.00;1.60;;;18.70;99.90;;;;;;4989636;28;20036;-84
2022/05/26 13:06:29;;;;;;;6.38;1.80;;;18.70;99.90;;;;;;4969570;28;20177;-85
2022/05/26 13:08:59;;;;;;;6.40;1.65;;;18.70;99.90;;;;;;4983299;28;20203;-84
2022/05/26 13:11:43;;;;;;;4.43;1.33;;;18.50;99.90;;;;;;5006171;28;20161;-85
2022/05/26 13:14:32;;;;;;;5.18;1.55;;;18.70;99.90;;;;;;5001804;28;20029;-84
2022/05/26 13:17:10;;;;;;;4.93;1.60;;;18.30;99.90;;;;;;4995330;28;20142;-85
2022/05/26 13:19:50;;;;;;;5.25;1.70;;;18.00;99.90;;;;;;4995965;28;20044;-85
2022/05/26 13:22:30;;;;;;;5.70;1.67;;;17.90;99.90;;;;;;4995694;28;20343;-85
2022/05/26 13:25:00;;;;;;;6.03;1.77;;;18.00;99.90;;;;;;5012225;28;20050;-84
2022/05/26 13:27:38;;;;;;;8.15;1.88;;;17.80;99.90;;;;;;5009347;28;20104;-85
2022/05/26 13:33:07;;;;;;;6.25;1.70;;;17.70;99.90;;;;;;4982729;28;20058;-85
2022/05/26 13:35:40;;;;;;;6.13;1.90;;;17.70;99.90;;;;;;4981413;28;20045;-85
2022/05/26 13:38:48;;;;;;;4.95;1.63;;;17.90;99.90;;;;;;4981683;28;20035;-85
2022/05/26 13:41:27;;;;;;;4.53;2.00;;;18.10;99.90;;;;;;4983792;28;20616;-85
2022/05/26 13:43:57;;;;;;;5.68;1.95;;;18.00;99.90;;;;;;5008919;28;20038;-85
2022/05/26 13:46:34;;;;;;;9.93;2.20;;;17.80;99.90;;;;;;4979656;28;20045;-85
2022/05/26 13:49:12;;;;;;;4.70;1.85;;;18.00;99.90;;;;;;5009426;28;20401;-85
2022/05/26 13:51:41;;;;;;;7.00;1.85;;;18.40;99.90;;;;;;5000206;28;20489;-84
2022/05/26 13:54:16;;;;;;;4.97;1.85;;;18.60;99.90;;;;;;5012117;28;20137;-84